createdAt,value
2024-01-25T01:35:11.980Z,-0.86
2024-01-25T01:37:41.079Z,-0.38
2024-01-25T01:40:10.993Z,-0.08
2024-01-25T01:42:40.949Z,-0.93
2024-01-25T01:45:14.001Z,0.12
2024-01-25T01:47:43.839Z,-0.55
2024-01-25T01:50:15.480Z,-0.44
2024-01-25T01:52:45.340Z,0.20
2024-01-25T01:55:14.886Z,-0.84
2024-01-25T01:57:44.071Z,0.20
2024-01-25T02:00:13.848Z,-0.64
2024-01-25T02:02:42.896Z,0.15
2024-01-25T02:05:12.452Z,-0.42
2024-01-25T02:07:43.101Z,0.21
2024-01-25T02:10:12.370Z,-0.41
2024-01-25T02:12:41.290Z,0.13
2024-01-25T02:15:10.808Z,-0.73
2024-01-25T02:17:41.050Z,-0.41
2024-01-25T02:20:11.525Z,-0.61
2024-01-25T02:22:41.934Z,-0.40
2024-01-25T02:25:11.061Z,0.24
2024-01-25T02:27:40.974Z,0.14
2024-01-25T02:30:10.727Z,-0.38
2024-01-25T02:32:39.672Z,-0.01
2024-01-25T02:35:09.297Z,-0.69
2024-01-25T02:37:38.223Z,-0.57
2024-01-25T02:40:09.812Z,-0.49
2024-01-25T02:42:38.713Z,0.22
2024-01-25T02:45:08.005Z,0.21
2024-01-25T02:47:37.165Z,-0.11
2024-01-25T02:50:06.634Z,-0.45
2024-01-25T02:52:35.360Z,-0.04
2024-01-25T02:55:04.181Z,-0.04
2024-01-25T02:57:34.683Z,0.18
2024-01-25T03:00:04.009Z,-0.51
2024-01-25T03:02:34.744Z,-0.95
2024-01-25T03:05:03.816Z,-0.11
2024-01-25T03:07:33.198Z,0.21
2024-01-25T03:10:01.972Z,0.22
2024-01-25T03:12:33.605Z,0.10
2024-01-25T03:15:03.836Z,0.24
2024-01-25T03:17:34.962Z,-0.30
2024-01-25T03:20:04.360Z,-0.87
2024-01-25T03:22:33.219Z,0.24
2024-01-25T03:25:02.055Z,-0.44
2024-01-25T03:27:34.708Z,0.25
2024-01-25T03:30:03.985Z,0.01
2024-01-25T03:32:33.327Z,-0.79
2024-01-25T03:35:02.611Z,-0.58
2024-01-25T03:37:32.803Z,-0.49
2024-01-25T03:40:01.919Z,-0.55
2024-01-25T03:42:33.837Z,-0.41
2024-01-25T03:45:02.730Z,-0.59
2024-01-25T03:47:33.791Z,-0.51
2024-01-25T03:50:03.098Z,0.29
2024-01-25T03:52:34.172Z,-0.69
2024-01-25T03:55:04.468Z,-0.42
2024-01-25T03:57:34.899Z,0.24
2024-01-25T04:00:03.982Z,0.15
2024-01-25T04:02:35.050Z,-0.26
2024-01-25T04:05:04.047Z,0.25
2024-01-25T04:07:33.966Z,-0.45
2024-01-25T04:10:02.943Z,-0.89
2024-01-25T04:12:32.738Z,0.22
2024-01-25T04:15:02.956Z,-0.48
2024-01-25T04:17:33.881Z,-0.51
2024-01-25T04:20:03.164Z,-0.01
2024-01-25T04:22:32.818Z,-0.53
2024-01-25T04:25:01.788Z,-0.50
2024-01-25T04:27:32.578Z,0.10
2024-01-25T04:30:04.960Z,-0.50
2024-01-25T04:32:34.073Z,-0.97
2024-01-25T04:35:03.220Z,-0.31
2024-01-25T04:37:32.610Z,0.36
2024-01-25T04:40:01.624Z,-0.20
2024-01-25T04:42:33.442Z,0.12
2024-01-25T04:45:03.979Z,0.14
2024-01-25T04:47:34.725Z,0.25
2024-01-25T04:50:03.805Z,0.37
2024-01-25T04:52:32.930Z,-0.56
2024-01-25T04:55:01.872Z,-0.38
2024-01-25T04:57:32.624Z,-0.61
2024-01-25T05:00:01.414Z,-0.51
2024-01-25T05:02:33.271Z,-0.36
2024-01-25T05:05:02.257Z,-0.15
2024-01-25T05:07:35.939Z,-0.24
2024-01-25T05:10:05.345Z,0.40
2024-01-25T05:12:34.314Z,-0.35
2024-01-25T05:15:03.436Z,0.37
2024-01-25T05:17:36.650Z,-0.32
2024-01-25T05:20:06.634Z,0.22
2024-01-25T05:22:41.442Z,-0.48
2024-01-25T05:25:11.370Z,-0.56
2024-01-25T05:27:40.209Z,-0.36
2024-01-25T05:30:11.477Z,-0.43
2024-01-25T05:32:41.851Z,0.43
2024-01-25T05:35:11.098Z,-0.29
2024-01-25T05:37:40.043Z,-0.20
2024-01-25T05:40:10.638Z,-0.29
2024-01-25T05:42:39.918Z,-0.68
2024-01-25T05:45:10.474Z,0.31
2024-01-25T05:47:39.852Z,0.20
2024-01-25T05:50:11.301Z,0.33
2024-01-25T05:52:40.166Z,-0.40
2024-01-25T05:55:09.742Z,0.44
2024-01-25T05:57:39.878Z,0.46
2024-01-25T06:00:09.981Z,0.45
2024-01-25T06:02:38.625Z,0.42
2024-01-25T06:05:08.351Z,0.42
2024-01-25T06:07:38.757Z,0.46
2024-01-25T06:10:10.616Z,-0.20
2024-01-25T06:12:39.831Z,0.36
2024-01-25T06:15:10.130Z,0.46
2024-01-25T06:17:39.436Z,0.44
2024-01-25T06:20:09.279Z,0.18
2024-01-25T06:22:39.667Z,-0.27
2024-01-25T06:25:10.178Z,0.41
2024-01-25T06:27:39.348Z,0.22
2024-01-25T06:30:09.352Z,0.42
2024-01-25T06:32:39.111Z,0.29
2024-01-25T06:35:11.753Z,-0.27
2024-01-25T06:37:44.958Z,-0.23
2024-01-25T06:40:14.656Z,-0.46
2024-01-25T06:42:44.117Z,0.37
2024-01-25T06:45:12.227Z,0.11
2024-01-25T06:47:41.148Z,0.35
2024-01-25T06:50:11.320Z,-0.11
2024-01-25T06:52:41.915Z,-0.42
2024-01-25T06:55:11.691Z,-0.58
2024-01-25T06:57:41.613Z,-0.93
2024-01-25T07:00:14.360Z,-0.32
2024-01-25T07:02:44.098Z,-0.33
2024-01-25T07:05:13.615Z,-0.48
2024-01-25T07:07:47.600Z,0.32
2024-01-25T07:10:16.638Z,0.31
2024-01-25T07:12:46.061Z,-0.37
2024-01-25T07:15:15.840Z,0.28
2024-01-25T07:17:45.053Z,-0.28
2024-01-25T07:20:17.246Z,-0.41
2024-01-25T07:22:48.467Z,-0.06
2024-01-25T07:25:17.823Z,-0.91
2024-01-25T07:27:48.095Z,-0.81
2024-01-25T07:30:17.948Z,-0.45
2024-01-25T07:32:47.554Z,-0.55
2024-01-25T07:35:17.011Z,-0.98
2024-01-25T07:37:47.389Z,-0.31
2024-01-25T07:40:16.382Z,0.10
2024-01-25T07:42:45.392Z,-0.54
2024-01-25T07:48:12.140Z,0.42
2024-01-25T07:50:44.830Z,0.42
2024-01-25T07:53:17.498Z,0.11
2024-01-25T07:55:47.149Z,-0.20
2024-01-25T07:58:17.511Z,-0.19
2024-01-25T08:00:47.090Z,-0.16
2024-01-25T08:03:17.643Z,-0.23
2024-01-25T08:05:51.239Z,0.49
2024-01-25T08:08:22.002Z,0.49
2024-01-25T08:10:51.027Z,0.39
2024-01-25T08:13:20.063Z,-0.12
2024-01-25T08:15:49.016Z,-0.40
2024-01-25T08:18:20.275Z,0.54
2024-01-25T08:20:49.487Z,0.55
2024-01-25T08:23:20.061Z,0.37
2024-01-25T08:25:50.352Z,0.54
2024-01-25T08:28:19.071Z,0.55
2024-01-25T08:30:48.410Z,0.56
2024-01-25T08:33:17.994Z,-0.09
2024-01-25T08:35:46.902Z,0.57
2024-01-25T08:38:15.808Z,0.45
2024-01-25T08:40:44.760Z,-0.24
2024-01-25T08:43:15.664Z,-0.05
2024-01-25T08:45:44.664Z,0.49
2024-01-25T08:48:14.840Z,0.48
2024-01-25T08:50:44.331Z,0.04
2024-01-25T08:53:13.316Z,-0.44
2024-01-25T08:55:43.122Z,0.64
2024-01-25T08:58:12.479Z,0.29
2024-01-25T09:00:46.452Z,0.09
2024-01-25T09:03:15.684Z,-0.10
2024-01-25T09:05:47.415Z,-0.09
2024-01-25T09:08:18.315Z,0.48
2024-01-25T09:10:47.331Z,0.66
2024-01-25T09:13:16.885Z,0.42
2024-01-25T09:15:48.449Z,0.51
2024-01-25T09:18:17.604Z,0.64
2024-01-25T09:20:49.916Z,0.64
2024-01-25T09:23:19.133Z,0.62
2024-01-25T09:25:48.261Z,0.67
2024-01-25T09:28:17.887Z,0.65
2024-01-25T09:30:48.756Z,0.67
2024-01-25T09:33:17.709Z,0.68
2024-01-25T09:35:49.190Z,0.67
2024-01-25T09:38:18.538Z,0.60
2024-01-25T09:40:50.647Z,0.02
2024-01-25T09:43:21.755Z,0.60
2024-01-25T09:45:56.317Z,0.70
2024-01-25T09:48:25.514Z,0.60
2024-01-25T09:50:57.869Z,0.72
2024-01-25T09:53:27.084Z,0.73
2024-01-25T09:56:03.717Z,0.71
2024-01-25T09:58:43.188Z,0.66
2024-01-25T10:01:16.545Z,0.76
2024-01-25T10:03:46.220Z,0.68
2024-01-25T10:06:16.193Z,0.15
2024-01-25T10:08:45.962Z,0.79
2024-01-25T10:11:15.660Z,0.80
2024-01-25T10:13:44.542Z,0.79
2024-01-25T10:16:16.195Z,0.80
2024-01-25T10:18:46.137Z,0.82
2024-01-25T10:21:16.452Z,0.80
2024-01-25T10:23:48.095Z,0.40
2024-01-25T10:26:19.459Z,0.81
2024-01-25T10:28:58.909Z,0.74
2024-01-25T10:31:33.455Z,0.33
2024-01-25T10:34:03.269Z,0.83
2024-01-25T10:36:33.125Z,-0.03
2024-01-25T10:39:07.897Z,0.74
2024-01-25T10:41:37.339Z,0.84
2024-01-25T10:44:07.857Z,0.70
2024-01-25T10:46:41.218Z,0.58
2024-01-25T10:49:10.899Z,0.87
2024-01-25T10:51:40.439Z,0.89
2024-01-25T10:54:10.235Z,0.89
2024-01-25T10:56:39.108Z,0.88
2024-01-25T10:59:08.637Z,0.87
2024-01-25T11:01:39.272Z,0.47
2024-01-25T11:04:15.385Z,0.88
2024-01-25T11:06:45.556Z,0.72
2024-01-25T11:09:20.242Z,0.88
2024-01-25T11:11:50.276Z,0.86
2024-01-25T11:14:19.346Z,0.78
2024-01-25T11:16:51.051Z,0.64
2024-01-25T11:19:21.805Z,0.86
2024-01-25T11:21:52.279Z,0.87
2024-01-25T11:24:23.663Z,0.87
2024-01-25T11:26:52.914Z,0.88
2024-01-25T11:29:23.758Z,0.80
2024-01-25T11:31:55.120Z,0.78
2024-01-25T11:34:25.026Z,0.88
2024-01-25T11:36:54.100Z,0.90
2024-01-25T11:39:23.058Z,0.92
2024-01-25T11:41:54.082Z,0.92
2024-01-25T11:44:25.635Z,0.93
2024-01-25T11:46:58.485Z,0.93
2024-01-25T11:49:27.745Z,0.93
2024-01-25T11:51:56.689Z,0.74
2024-01-25T11:54:25.495Z,0.94
2024-01-25T11:56:54.635Z,0.84
2024-01-25T11:59:23.775Z,0.95
2024-01-25T12:01:52.722Z,0.96
2024-01-25T12:04:23.558Z,0.88
2024-01-25T12:06:52.582Z,0.94
2024-01-25T12:09:21.358Z,0.75
2024-01-25T12:11:52.627Z,0.86
2024-01-25T12:14:21.495Z,0.91
2024-01-25T12:16:50.266Z,0.62
2024-01-25T12:19:19.292Z,0.87
2024-01-25T12:21:49.780Z,0.72
2024-01-25T12:24:18.698Z,0.59
2024-01-25T12:26:47.458Z,0.87
2024-01-25T12:29:16.390Z,0.69
2024-01-25T12:31:45.249Z,0.90
2024-01-25T12:34:18.071Z,0.47
2024-01-25T12:36:48.496Z,0.86
2024-01-25T12:39:20.265Z,0.83
2024-01-25T12:41:50.070Z,0.84
2024-01-25T12:44:21.483Z,0.82
2024-01-25T12:46:50.158Z,0.83
2024-01-25T12:49:22.926Z,0.72
2024-01-25T12:51:54.283Z,0.59
2024-01-25T12:54:23.404Z,0.80
2024-01-25T12:56:52.516Z,0.78
2024-01-25T12:59:22.035Z,0.78
2024-01-25T13:01:50.909Z,0.76
2024-01-25T13:04:19.694Z,0.73
2024-01-25T13:06:49.628Z,0.76
2024-01-25T13:09:20.035Z,0.75
2024-01-25T13:11:49.219Z,0.75
2024-01-25T13:14:19.004Z,0.75
2024-01-25T13:16:48.033Z,0.73
2024-01-25T13:19:16.849Z,0.73
2024-01-25T13:21:45.724Z,0.70
2024-01-25T13:24:14.592Z,0.70
2024-01-25T13:26:45.001Z,0.70
2024-01-25T13:29:14.352Z,0.49
2024-01-25T13:31:44.197Z,0.69
2024-01-25T13:34:13.294Z,0.69
2024-01-25T13:36:42.112Z,0.22
2024-01-25T13:39:11.461Z,0.68
2024-01-25T13:41:40.273Z,0.65
2024-01-25T13:44:10.417Z,0.60
2024-01-25T13:46:39.166Z,0.55
2024-01-25T13:49:07.947Z,0.58
2024-01-25T13:51:37.790Z,0.58
2024-01-25T13:54:06.737Z,0.55
2024-01-25T13:56:35.429Z,0.55
2024-01-25T13:59:04.300Z,0.46
2024-01-25T14:01:34.490Z,0.53
2024-01-25T14:04:03.266Z,0.49
2024-01-25T14:06:32.297Z,0.50
2024-01-25T14:09:01.326Z,0.52
2024-01-25T14:11:30.219Z,0.52
2024-01-25T14:13:59.075Z,0.51
2024-01-25T14:16:28.017Z,0.52
2024-01-25T14:18:58.757Z,0.51
2024-01-25T14:21:27.862Z,0.50
2024-01-25T14:23:56.822Z,0.52
2024-01-25T14:26:25.764Z,0.47
2024-01-25T14:28:54.976Z,0.52
2024-01-25T14:31:25.890Z,0.52
2024-01-25T14:33:55.138Z,0.32
2024-01-25T14:36:25.527Z,0.52
2024-01-25T14:38:54.294Z,0.52
2024-01-25T14:41:23.092Z,0.36
2024-01-25T14:43:51.871Z,0.52
2024-01-25T14:46:20.785Z,0.54
2024-01-25T14:48:49.644Z,0.54
2024-01-25T14:51:18.392Z,0.53
2024-01-25T14:53:48.680Z,0.46
2024-01-25T14:56:17.435Z,0.39
2024-01-25T14:58:46.369Z,0.50
2024-01-25T15:01:18.995Z,0.53
2024-01-25T15:03:48.417Z,0.53
2024-01-25T15:06:17.088Z,0.33
2024-01-25T15:08:45.939Z,0.52
2024-01-25T15:11:16.210Z,0.27
2024-01-25T15:13:45.165Z,0.52
2024-01-25T15:16:14.807Z,0.50
2024-01-25T15:18:44.742Z,0.35
2024-01-25T15:21:13.530Z,0.50
2024-01-25T15:23:42.313Z,0.48
2024-01-25T15:26:11.200Z,0.18
2024-01-25T15:28:41.366Z,0.08
2024-01-25T15:31:13.008Z,0.47
2024-01-25T15:33:41.762Z,0.47
2024-01-25T15:36:10.657Z,0.48
2024-01-25T15:38:39.544Z,0.48
2024-01-25T15:41:08.197Z,0.49
2024-01-25T15:43:37.115Z,0.47
2024-01-25T15:46:07.484Z,0.25
2024-01-25T15:48:36.441Z,0.46
2024-01-25T15:51:05.201Z,0.50
2024-01-25T15:53:34.069Z,0.19
2024-01-25T15:56:04.138Z,0.49
2024-01-25T15:58:33.565Z,0.49
2024-01-25T16:01:02.381Z,0.49
2024-01-25T16:03:32.515Z,0.51
2024-01-25T16:06:01.302Z,0.21
2024-01-25T16:08:30.243Z,0.53
2024-01-25T16:10:59.004Z,0.09
2024-01-25T16:13:27.732Z,0.45
2024-01-25T16:15:56.514Z,0.50
2024-01-25T16:18:25.388Z,0.50
2024-01-25T16:20:56.316Z,0.51
2024-01-25T16:23:25.124Z,0.50
2024-01-25T16:25:53.815Z,0.47
2024-01-25T16:28:22.592Z,0.47
2024-01-25T16:30:51.398Z,0.45
2024-01-25T16:33:20.444Z,0.45
2024-01-25T16:35:49.175Z,0.43
2024-01-25T16:38:19.476Z,0.25
2024-01-25T16:40:48.372Z,0.37
2024-01-25T16:43:17.104Z,0.20
2024-01-25T16:45:45.846Z,0.33
2024-01-25T16:48:16.731Z,0.34
2024-01-25T16:50:51.877Z,0.20
2024-01-25T16:53:23.119Z,-1.09
2024-01-25T16:55:56.264Z,0.10
2024-01-25T16:58:25.096Z,-0.98
2024-01-25T17:00:54.944Z,-0.92
2024-01-25T17:03:24.040Z,0.30
2024-01-25T17:05:53.167Z,0.20
2024-01-25T17:08:23.543Z,0.31
2024-01-25T17:10:52.638Z,-0.35
2024-01-25T17:13:21.723Z,-0.49
2024-01-25T17:15:50.578Z,0.33
2024-01-25T17:18:19.660Z,-0.51
2024-01-25T17:20:48.835Z,-0.36
2024-01-25T17:23:17.739Z,-0.75
2024-01-25T17:25:49.189Z,-0.40
2024-01-25T17:28:19.261Z,0.23
2024-01-25T17:30:48.047Z,0.20
2024-01-25T17:33:17.201Z,0.19
2024-01-25T17:35:49.548Z,0.18
2024-01-25T17:38:18.940Z,0.18
2024-01-25T17:40:49.093Z,0.03
2024-01-25T17:43:24.555Z,0.14
2024-01-25T17:45:55.051Z,0.12
2024-01-25T17:48:24.527Z,0.07
2024-01-25T17:50:53.414Z,-0.01
2024-01-25T17:53:22.490Z,-0.01
2024-01-25T17:55:52.804Z,-0.14
2024-01-25T17:58:21.606Z,-0.01
2024-01-25T18:00:50.522Z,0.01
2024-01-25T18:03:20.232Z,0.02
2024-01-25T18:05:49.271Z,0.03
2024-01-25T18:08:18.129Z,-0.08
2024-01-25T18:10:46.809Z,-0.01
2024-01-25T18:13:17.075Z,-0.02
2024-01-25T18:15:46.061Z,-0.05
2024-01-25T18:18:14.864Z,-0.08
2024-01-25T18:20:44.282Z,-0.08
2024-01-25T18:23:13.150Z,-0.08
2024-01-25T18:25:42.964Z,-0.08
2024-01-25T18:28:12.173Z,-0.12
2024-01-25T18:30:42.253Z,-0.38
2024-01-25T18:33:11.101Z,-0.16
2024-01-25T18:35:40.065Z,-0.14
2024-01-25T18:38:08.785Z,-0.12
2024-01-25T18:40:37.871Z,-0.11
2024-01-25T18:43:06.710Z,-0.09
2024-01-25T18:45:35.617Z,-0.12
2024-01-25T18:48:07.524Z,-0.21
2024-01-25T18:50:36.579Z,-0.66
2024-01-25T18:53:05.828Z,-0.60
2024-01-25T18:55:36.707Z,-0.50
2024-01-25T18:58:06.337Z,-0.28
2024-01-25T19:00:35.652Z,-0.64
2024-01-25T19:03:07.145Z,-0.42
2024-01-25T19:05:39.822Z,-0.37
2024-01-25T19:08:13.021Z,-0.90
2024-01-25T19:10:42.237Z,-0.64
2024-01-25T19:13:11.154Z,-1.35
2024-01-25T19:15:40.133Z,-1.79
2024-01-25T19:18:10.698Z,-0.81
2024-01-25T19:20:41.793Z,-1.33
2024-01-25T19:23:10.669Z,-1.32
2024-01-25T19:25:40.388Z,-0.40
2024-01-25T19:28:09.353Z,-1.89
2024-01-25T19:30:38.169Z,-1.67
2024-01-25T19:33:07.247Z,-1.47
2024-01-25T19:35:40.447Z,-1.95
2024-01-25T19:38:10.718Z,-1.49
2024-01-25T19:40:42.906Z,-0.78
2024-01-25T19:43:11.915Z,-0.77
2024-01-25T19:45:40.912Z,-1.17
2024-01-25T19:48:10.601Z,-0.55
2024-01-25T19:50:41.043Z,-0.90
2024-01-25T19:53:09.852Z,-0.82
2024-01-25T19:55:38.622Z,-1.26
2024-01-25T19:58:08.014Z,-0.67
2024-01-25T20:00:37.170Z,-0.58
2024-01-25T20:03:06.936Z,-0.56
2024-01-25T20:05:36.311Z,-0.53
2024-01-25T20:08:07.513Z,-1.08
2024-01-25T20:10:36.449Z,-0.52
2024-01-25T20:13:05.666Z,-0.51
2024-01-25T20:15:34.595Z,-0.54
2024-01-25T20:18:03.511Z,-0.55
2024-01-25T20:20:42.363Z,-0.55
2024-01-25T20:23:16.302Z,-0.76
2024-01-25T20:25:45.073Z,-0.62
2024-01-25T20:28:14.247Z,-0.62
2024-01-25T20:30:43.164Z,-0.65
2024-01-25T20:33:12.095Z,-0.65
2024-01-25T20:35:41.157Z,-0.74
2024-01-25T20:38:09.893Z,-0.66
2024-01-25T20:40:40.022Z,-0.68
2024-01-25T20:43:09.030Z,-0.68
2024-01-25T20:45:38.005Z,-0.68
2024-01-25T20:48:07.760Z,-0.68
2024-01-25T20:50:39.052Z,-0.77
2024-01-25T20:53:08.945Z,-0.67
2024-01-25T20:55:40.210Z,-0.70
2024-01-25T20:58:08.957Z,-0.72
2024-01-25T21:00:39.049Z,-0.72
2024-01-25T21:03:09.394Z,-0.91
2024-01-25T21:05:38.869Z,-0.79
2024-01-25T21:08:09.189Z,-0.90
2024-01-25T21:10:40.094Z,-0.85
2024-01-25T21:13:10.062Z,-0.87
2024-01-25T21:15:39.169Z,-0.90
2024-01-25T21:18:08.187Z,-1.57
2024-01-25T21:20:37.334Z,-0.97
2024-01-25T21:23:06.285Z,-1.00
2024-01-25T21:25:34.944Z,-1.01
2024-01-25T21:28:07.522Z,-1.28
2024-01-25T21:30:36.337Z,-1.01
2024-01-25T21:33:05.753Z,-1.09
2024-01-25T21:35:34.562Z,-1.12
2024-01-25T21:38:03.208Z,-1.15
2024-01-25T21:40:31.838Z,-1.11
2024-01-25T21:43:01.578Z,-1.09
2024-01-25T21:45:31.979Z,-1.09
2024-01-25T21:48:01.798Z,-1.12
2024-01-25T21:50:30.693Z,-1.13
2024-01-25T21:52:59.658Z,-1.12
2024-01-25T21:55:28.291Z,-1.09
2024-01-25T21:57:57.644Z,-1.09
2024-01-25T22:00:28.689Z,-1.14
2024-01-25T22:02:59.893Z,-1.17
2024-01-25T22:05:29.187Z,-1.20
2024-01-25T22:07:58.254Z,-1.22
2024-01-25T22:10:27.702Z,-1.24
2024-01-25T22:12:56.624Z,-1.27
2024-01-25T22:15:25.551Z,-1.60
2024-01-25T22:17:54.273Z,-1.37
2024-01-25T22:20:24.486Z,-1.40
2024-01-25T22:22:53.252Z,-1.84
2024-01-25T22:25:22.069Z,-1.44
2024-01-25T22:27:50.985Z,-1.44
2024-01-25T22:30:20.647Z,-1.44
2024-01-25T22:32:49.534Z,-1.43
2024-01-25T22:35:18.381Z,-1.54
2024-01-25T22:37:49.464Z,-1.40
2024-01-25T22:40:18.488Z,-1.38
2024-01-25T22:42:47.373Z,-1.40
2024-01-25T22:45:18.104Z,-1.51
2024-01-25T22:47:47.066Z,-1.43
2024-01-25T22:50:17.513Z,-1.43
2024-01-25T22:52:47.867Z,-1.43
2024-01-25T22:55:16.980Z,-1.54
2024-01-25T22:57:46.858Z,-1.46
2024-01-25T23:00:22.657Z,-1.49
2024-01-25T23:02:53.756Z,-1.51
2024-01-25T23:05:23.698Z,-1.54
2024-01-25T23:07:54.319Z,-1.54
2024-01-25T23:10:23.377Z,-1.55
2024-01-25T23:12:53.269Z,-1.73
2024-01-25T23:15:22.738Z,-1.79
2024-01-25T23:17:51.727Z,-1.72
2024-01-25T23:20:20.988Z,-1.77
2024-01-25T23:22:50.206Z,-1.72
2024-01-25T23:25:20.477Z,-2.51
2024-01-25T23:27:49.348Z,-1.80
2024-01-25T23:30:18.256Z,-1.98
2024-01-25T23:32:47.638Z,-1.80
2024-01-25T23:35:16.433Z,-1.79
2024-01-25T23:37:45.095Z,-1.78
2024-01-25T23:40:16.671Z,-1.79
2024-01-25T23:42:48.897Z,-1.88
2024-01-25T23:45:19.918Z,-2.08
2024-01-25T23:47:49.498Z,-1.95
2024-01-25T23:50:19.107Z,-2.95
2024-01-25T23:52:48.125Z,-2.01
2024-01-25T23:55:16.866Z,-1.89
2024-01-25T23:57:45.962Z,-1.88
